createdAt,value
2022-10-17T00:07:50.398Z,1015.299
2022-10-17T00:12:52.893Z,1015.375
2022-10-17T00:17:55.511Z,1015.175
2022-10-17T00:22:58.203Z,1015.195
2022-10-17T00:28:01.193Z,1015.323
2022-10-17T00:33:03.972Z,1015.25
2022-10-17T00:38:06.896Z,1015.143
2022-10-17T00:43:09.580Z,1015.183
2022-10-17T00:48:12.199Z,1015.281
2022-10-17T00:53:14.968Z,1015.307
2022-10-17T00:58:17.862Z,1015.386
2022-10-17T01:03:20.783Z,1015.305
2022-10-17T01:13:26.342Z,1015.271
2022-10-17T01:18:29.053Z,1015.177
2022-10-17T01:23:31.763Z,1015.15
2022-10-17T01:33:37.183Z,1015.044
2022-10-17T01:38:39.652Z,1015.006
2022-10-17T01:43:42.239Z,1014.992
2022-10-17T01:48:47.947Z,1014.954
2022-10-17T01:53:50.584Z,1014.954
2022-10-17T02:03:55.738Z,1015.012
2022-10-17T02:08:58.353Z,1015.039
2022-10-17T02:14:03.962Z,1014.929
2022-10-17T02:19:06.526Z,1015.005
2022-10-17T02:24:09.333Z,1014.966
2022-10-17T02:29:11.835Z,1014.882
2022-10-17T02:34:17.219Z,1014.893
2022-10-17T02:39:19.823Z,1014.843
2022-10-17T02:44:22.731Z,1014.879
2022-10-17T02:49:25.359Z,1014.803
2022-10-17T02:54:28.016Z,1014.756
2022-10-17T02:59:30.777Z,1014.676
2022-10-17T03:09:54.339Z,1014.795
2022-10-17T03:14:57.115Z,1014.757
2022-10-17T03:20:00.002Z,1014.878
2022-10-17T03:25:02.662Z,1014.682
2022-10-17T03:40:10.685Z,1014.623
2022-10-17T03:50:15.912Z,1014.608
2022-10-17T03:55:21.391Z,1014.58
2022-10-17T04:00:23.846Z,1014.585
2022-10-17T04:05:26.306Z,1014.537
2022-10-17T04:10:29.065Z,1014.451
2022-10-17T04:15:31.565Z,1014.434
2022-10-17T04:26:32.678Z,1014.502
2022-10-17T04:31:35.236Z,1014.464
2022-10-17T04:36:37.943Z,1014.459
2022-10-17T04:41:40.663Z,1014.449
2022-10-17T04:46:43.155Z,1014.533
2022-10-17T04:51:45.834Z,1014.521
2022-10-17T04:56:48.651Z,1014.517
2022-10-17T05:01:51.123Z,1014.485
2022-10-17T05:06:53.655Z,1014.446
2022-10-17T05:11:56.441Z,1014.497
2022-10-17T05:16:58.898Z,1014.526
2022-10-17T05:22:01.365Z,1014.495
2022-10-17T05:27:04.011Z,1014.508
2022-10-17T05:32:06.547Z,1014.489
2022-10-17T05:42:12.256Z,1014.493
2022-10-17T05:47:14.940Z,1014.509
2022-10-17T05:52:17.609Z,1014.538
2022-10-17T05:57:20.558Z,1014.53
2022-10-17T06:02:23.279Z,1014.597
2022-10-17T06:07:25.677Z,1014.748
2022-10-17T06:12:28.669Z,1014.798
2022-10-17T06:17:31.028Z,1014.915
2022-10-17T06:22:33.687Z,1014.998
2022-10-17T06:27:36.186Z,1015.026
2022-10-17T06:32:38.879Z,1015.06
2022-10-17T06:37:41.931Z,1015.014
2022-10-17T06:42:44.312Z,1015.043
2022-10-17T06:47:47.111Z,1015.162
2022-10-17T06:57:52.582Z,1015.032
2022-10-17T07:07:57.745Z,1015.088
2022-10-17T07:13:00.483Z,1015.175
2022-10-17T07:18:05.870Z,1015.25
2022-10-17T07:23:08.581Z,1015.337
2022-10-17T07:28:11.216Z,1015.288
2022-10-17T07:33:13.759Z,1015.292
2022-10-17T07:38:16.626Z,1015.238
2022-10-17T07:43:19.366Z,1015.256
2022-10-17T07:48:24.704Z,1015.286
2022-10-17T07:53:27.558Z,1015.339
2022-10-17T07:58:30.382Z,1015.339
2022-10-17T08:03:33.047Z,1015.315
2022-10-17T08:08:35.621Z,1015.35
2022-10-17T08:13:38.479Z,1015.355
2022-10-17T08:18:41.012Z,1015.398
2022-10-17T08:23:43.749Z,1015.326
2022-10-17T08:33:49.468Z,1015.314
2022-10-17T08:38:53.066Z,1015.235
2022-10-17T08:43:54.826Z,1015.273
2022-10-17T08:48:57.406Z,1015.352
2022-10-17T08:54:00.211Z,1015.285
2022-10-17T08:59:02.929Z,1015.279
2022-10-17T09:04:05.729Z,1015.192
2022-10-17T09:09:08.521Z,1015.278
2022-10-17T09:14:10.956Z,1015.365
2022-10-17T09:19:13.678Z,1015.391
2022-10-17T09:24:16.291Z,1015.36
2022-10-17T09:29:19.030Z,1015.323
2022-10-17T09:34:24.035Z,1015.294
2022-10-17T09:39:24.608Z,1015.195
2022-10-17T09:44:27.151Z,1015.166
2022-10-17T09:49:29.717Z,1015.215
2022-10-17T09:54:32.545Z,1015.149
2022-10-17T09:59:35.048Z,1015.156
2022-10-17T10:04:46.993Z,1015.139
2022-10-17T10:09:40.745Z,1015.173
2022-10-17T10:14:47.118Z,1015.243
2022-10-17T10:19:46.284Z,1015.191
2022-10-17T10:24:49.044Z,1015.181
2022-10-17T10:35:50.315Z,1015.213
2022-10-17T10:50:59.125Z,1015.049
2022-10-17T10:56:01.806Z,1014.912
2022-10-17T11:01:04.480Z,1014.909
2022-10-17T11:06:07.158Z,1015.064
2022-10-17T11:11:09.952Z,1014.883
2022-10-17T11:16:13.078Z,1014.868
2022-10-17T11:21:15.818Z,1014.843
2022-10-17T11:26:18.793Z,1014.679
2022-10-17T11:31:21.738Z,1014.743
2022-10-17T11:36:24.452Z,1014.816
2022-10-17T11:41:27.146Z,1014.799
2022-10-17T11:46:29.890Z,1014.86
2022-10-17T11:56:37.047Z,1014.713
2022-10-17T12:01:38.453Z,1014.745
2022-10-17T12:06:41.228Z,1014.789
2022-10-17T12:11:43.906Z,1014.672
2022-10-17T12:16:46.673Z,1014.64
2022-10-17T12:21:49.436Z,1014.608
2022-10-17T12:26:55.148Z,1014.574
2022-10-17T12:31:54.666Z,1014.496
2022-10-17T12:36:57.703Z,1014.452
2022-10-17T12:42:00.733Z,1014.36
2022-10-17T12:57:08.630Z,1014.344
2022-10-17T13:02:11.139Z,1014.371
2022-10-17T13:07:13.744Z,1014.216
2022-10-17T13:12:16.352Z,1014.264
2022-10-17T13:17:19.148Z,1014.341
2022-10-17T13:22:22.480Z,1014.388
2022-10-17T13:27:25.185Z,1014.391
2022-10-17T13:38:26.183Z,1014.332
2022-10-17T13:43:28.940Z,1014.35
2022-10-17T13:48:31.592Z,1014.252
2022-10-17T13:53:34.230Z,1014.359
2022-10-17T14:08:42.597Z,1014.445
2022-10-17T14:13:48.274Z,1014.495
2022-10-17T14:18:50.925Z,1014.473
2022-10-17T14:28:59.017Z,1014.526
2022-10-17T14:34:01.633Z,1014.568
2022-10-17T14:39:04.238Z,1014.562
2022-10-17T14:44:06.902Z,1014.576
2022-10-17T14:49:09.549Z,1014.536
2022-10-17T14:54:12.103Z,1014.624
2022-10-17T14:59:21.645Z,1014.63
2022-10-17T15:04:17.385Z,1014.675
2022-10-17T15:09:23.137Z,1014.724
2022-10-17T15:14:25.874Z,1014.695
2022-10-17T15:19:28.255Z,1014.751
2022-10-17T15:24:33.562Z,1014.812
2022-10-17T15:29:36.369Z,1014.788
2022-10-17T15:39:41.795Z,1014.796
2022-10-17T15:44:51.840Z,1014.733
2022-10-17T15:49:55.132Z,1014.797
2022-10-17T15:54:58.544Z,1014.83
2022-10-17T16:00:00.361Z,1014.818
2022-10-17T16:05:02.784Z,1014.85
2022-10-17T16:10:05.389Z,1014.845
2022-10-17T16:15:07.925Z,1014.84
2022-10-17T16:20:10.895Z,1014.872
2022-10-17T16:25:13.242Z,1014.922
2022-10-17T16:30:16.001Z,1014.924
2022-10-17T16:35:18.598Z,1015.021
2022-10-17T16:40:21.173Z,1015.022
2022-10-17T16:45:23.813Z,1014.988
2022-10-17T16:50:26.293Z,1015
2022-10-17T17:00:31.776Z,1015.065
2022-10-17T17:05:34.392Z,1014.972
2022-10-17T17:10:37.115Z,1014.991
2022-10-17T17:15:40.268Z,1015.104
2022-10-17T17:20:43.016Z,1015.114
2022-10-17T17:25:46.248Z,1015.156
2022-10-17T17:30:49.437Z,1015.112
2022-10-17T17:35:51.919Z,1015.169
2022-10-17T17:45:57.711Z,1015.256
2022-10-17T17:51:00.593Z,1015.268
2022-10-17T17:56:03.128Z,1015.235
2022-10-17T18:01:05.834Z,1015.254
2022-10-17T18:06:08.546Z,1015.271
2022-10-17T18:11:14.973Z,1015.31
2022-10-17T18:16:15.636Z,1015.347
2022-10-17T18:21:18.211Z,1015.391
2022-10-17T18:26:21.486Z,1015.443
2022-10-17T18:36:54.479Z,1015.573
2022-10-17T18:41:56.972Z,1015.572
2022-10-17T18:47:01.360Z,1015.586
2022-10-17T18:52:02.825Z,1015.624
2022-10-17T18:57:05.541Z,1015.806
2022-10-17T19:02:08.287Z,1015.856
2022-10-17T19:07:11.049Z,1015.896
2022-10-17T19:12:13.800Z,1015.922
2022-10-17T19:17:16.809Z,1015.944
2022-10-17T19:22:19.802Z,1015.966
2022-10-17T19:27:22.483Z,1015.913
2022-10-17T19:32:25.191Z,1015.905
2022-10-17T19:37:27.936Z,1015.972
2022-10-17T19:54:26.859Z,1016.043
2022-10-17T19:59:29.799Z,1016.072
2022-10-17T20:04:32.369Z,1016.189
2022-10-17T20:09:37.683Z,1016.218
2022-10-17T20:14:41.192Z,1016.282
2022-10-17T20:19:42.833Z,1016.292
2022-10-17T20:24:45.442Z,1016.354
2022-10-17T20:29:48.090Z,1016.352
2022-10-17T20:34:50.821Z,1016.361
2022-10-17T20:40:10.833Z,1016.405
2022-10-17T20:44:58.776Z,1016.464
2022-10-17T20:50:01.450Z,1016.54
2022-10-17T20:55:04.053Z,1016.567
2022-10-17T21:00:06.710Z,1016.614
2022-10-17T21:15:14.906Z,1016.667
2022-10-17T21:20:17.455Z,1016.68
2022-10-17T21:30:25.622Z,1016.779
2022-10-17T21:35:28.272Z,1016.806
2022-10-17T21:40:30.900Z,1016.775
2022-10-17T21:45:33.430Z,1016.785
2022-10-17T21:50:36.203Z,1016.851
2022-10-17T21:55:38.886Z,1016.892
2022-10-17T22:00:41.484Z,1016.977
2022-10-17T22:05:44.313Z,1017.052
2022-10-17T22:10:47.165Z,1017.089
2022-10-17T22:15:50.316Z,1017.119
2022-10-17T22:20:52.893Z,1017.167
2022-10-17T22:25:55.464Z,1017.135
2022-10-17T22:30:58.426Z,1017.179
2022-10-17T22:36:01.091Z,1017.207
2022-10-17T22:41:03.730Z,1017.208
2022-10-17T22:46:06.577Z,1017.193
2022-10-17T22:51:09.019Z,1017.162
2022-10-17T23:02:09.922Z,1017.199
2022-10-17T23:07:12.412Z,1017.199
2022-10-17T23:12:14.959Z,1017.226
2022-10-17T23:17:17.512Z,1017.186
2022-10-17T23:22:20.255Z,1017.184
2022-10-17T23:32:25.680Z,1017.279
2022-10-17T23:37:28.434Z,1017.279
2022-10-17T23:42:30.932Z,1017.263
2022-10-17T23:47:33.806Z,1017.216
2022-10-17T23:52:36.373Z,1017.199
2022-10-17T23:57:38.914Z,1017.251
